sensor_id;sensor_type;location;lat;lon;timestamp;P1;durP1;ratioP1;P2;durP2;ratioP2
75156;SDS011;63736;50.076;8.198;2022-10-24T00:02:06;7.10;;;3.00;;
75156;SDS011;63736;50.076;8.198;2022-10-24T00:04:36;5.95;;;2.20;;
75156;SDS011;63736;50.076;8.198;2022-10-24T00:07:04;5.70;;;1.73;;
75156;SDS011;63736;50.076;8.198;2022-10-24T00:09:30;7.70;;;2.37;;
75156;SDS011;63736;50.076;8.198;2022-10-24T00:11:56;5.38;;;1.67;;
75156;SDS011;63736;50.076;8.198;2022-10-24T00:14:21;9.43;;;2.77;;
75156;SDS011;63736;50.076;8.198;2022-10-24T00:16:47;7.67;;;2.90;;
75156;SDS011;63736;50.076;8.198;2022-10-24T00:19:12;6.63;;;2.70;;
75156;SDS011;63736;50.076;8.198;2022-10-24T00:21:37;11.23;;;2.92;;
75156;SDS011;63736;50.076;8.198;2022-10-24T00:24:03;10.33;;;3.10;;
75156;SDS011;63736;50.076;8.198;2022-10-24T00:26:28;11.57;;;3.70;;
75156;SDS011;63736;50.076;8.198;2022-10-24T00:28:54;10.17;;;4.80;;
75156;SDS011;63736;50.076;8.198;2022-10-24T00:31:19;13.87;;;4.80;;
75156;SDS011;63736;50.076;8.198;2022-10-24T00:33:45;9.63;;;3.23;;
75156;SDS011;63736;50.076;8.198;2022-10-24T00:36:11;8.20;;;3.35;;
75156;SDS011;63736;50.076;8.198;2022-10-24T00:38:38;6.82;;;2.53;;
75156;SDS011;63736;50.076;8.198;2022-10-24T00:41:03;8.90;;;2.80;;
75156;SDS011;63736;50.076;8.198;2022-10-24T00:43:29;11.90;;;3.63;;
75156;SDS011;63736;50.076;8.198;2022-10-24T00:45:58;5.47;;;1.70;;
75156;SDS011;63736;50.076;8.198;2022-10-24T00:53:37;10.45;;;3.13;;
75156;SDS011;63736;50.076;8.198;2022-10-24T00:56:08;8.60;;;2.70;;
75156;SDS011;63736;50.076;8.198;2022-10-24T00:58:36;5.88;;;2.47;;
75156;SDS011;63736;50.076;8.198;2022-10-24T01:01:03;9.73;;;2.53;;
75156;SDS011;63736;50.076;8.198;2022-10-24T01:03:30;6.43;;;1.90;;
75156;SDS011;63736;50.076;8.198;2022-10-24T01:06:00;14.60;;;4.50;;
75156;SDS011;63736;50.076;8.198;2022-10-24T01:08:38;18.77;;;6.05;;
75156;SDS011;63736;50.076;8.198;2022-10-24T01:14:10;7.50;;;2.83;;
75156;SDS011;63736;50.076;8.198;2022-10-24T01:16:59;6.72;;;1.92;;
75156;SDS011;63736;50.076;8.198;2022-10-24T01:22:46;8.63;;;3.38;;
75156;SDS011;63736;50.076;8.198;2022-10-24T01:28:21;14.25;;;4.22;;
75156;SDS011;63736;50.076;8.198;2022-10-24T01:31:07;8.02;;;2.53;;
75156;SDS011;63736;50.076;8.198;2022-10-24T01:33:37;9.38;;;3.28;;
75156;SDS011;63736;50.076;8.198;2022-10-24T01:36:10;12.35;;;3.85;;
75156;SDS011;63736;50.076;8.198;2022-10-24T01:38:45;6.37;;;1.90;;
75156;SDS011;63736;50.076;8.198;2022-10-24T01:41:19;6.60;;;2.47;;
75156;SDS011;63736;50.076;8.198;2022-10-24T01:43:50;5.57;;;1.90;;
75156;SDS011;63736;50.076;8.198;2022-10-24T01:46:28;4.97;;;1.52;;
75156;SDS011;63736;50.076;8.198;2022-10-24T01:48:59;8.05;;;2.70;;
75156;SDS011;63736;50.076;8.198;2022-10-24T01:51:30;9.23;;;3.13;;
75156;SDS011;63736;50.076;8.198;2022-10-24T01:53:57;9.77;;;3.15;;
75156;SDS011;63736;50.076;8.198;2022-10-24T01:56:24;6.03;;;2.00;;
75156;SDS011;63736;50.076;8.198;2022-10-24T01:58:50;6.40;;;1.92;;
75156;SDS011;63736;50.076;8.198;2022-10-24T02:01:16;4.33;;;1.30;;
75156;SDS011;63736;50.076;8.198;2022-10-24T02:03:50;17.48;;;4.93;;
75156;SDS011;63736;50.076;8.198;2022-10-24T02:06:27;17.23;;;5.87;;
75156;SDS011;63736;50.076;8.198;2022-10-24T02:08:57;19.77;;;6.03;;
75156;SDS011;63736;50.076;8.198;2022-10-24T02:11:25;18.33;;;5.95;;
75156;SDS011;63736;50.076;8.198;2022-10-24T02:13:52;17.73;;;6.63;;
75156;SDS011;63736;50.076;8.198;2022-10-24T02:16:39;17.55;;;5.90;;
75156;SDS011;63736;50.076;8.198;2022-10-24T02:19:06;13.80;;;3.67;;
75156;SDS011;63736;50.076;8.198;2022-10-24T02:21:47;15.47;;;5.23;;
75156;SDS011;63736;50.076;8.198;2022-10-24T02:24:23;13.23;;;4.40;;
75156;SDS011;63736;50.076;8.198;2022-10-24T02:29:39;15.13;;;5.00;;
75156;SDS011;63736;50.076;8.198;2022-10-24T02:32:13;18.17;;;5.60;;
75156;SDS011;63736;50.076;8.198;2022-10-24T02:34:42;17.65;;;6.00;;
75156;SDS011;63736;50.076;8.198;2022-10-24T02:37:10;18.95;;;5.72;;
75156;SDS011;63736;50.076;8.198;2022-10-24T02:39:38;11.00;;;3.40;;
75156;SDS011;63736;50.076;8.198;2022-10-24T02:42:05;8.43;;;3.27;;
75156;SDS011;63736;50.076;8.198;2022-10-24T02:44:33;9.85;;;4.00;;
75156;SDS011;63736;50.076;8.198;2022-10-24T02:47:00;12.70;;;4.40;;
75156;SDS011;63736;50.076;8.198;2022-10-24T02:49:28;9.90;;;3.00;;
75156;SDS011;63736;50.076;8.198;2022-10-24T02:51:54;18.23;;;5.60;;
75156;SDS011;63736;50.076;8.198;2022-10-24T02:54:19;7.83;;;3.00;;
75156;SDS011;63736;50.076;8.198;2022-10-24T02:56:46;13.20;;;4.13;;
75156;SDS011;63736;50.076;8.198;2022-10-24T02:59:16;6.68;;;2.22;;
75156;SDS011;63736;50.076;8.198;2022-10-24T03:01:41;7.33;;;2.80;;
75156;SDS011;63736;50.076;8.198;2022-10-24T03:04:06;10.97;;;3.10;;
75156;SDS011;63736;50.076;8.198;2022-10-24T03:06:31;7.17;;;2.30;;
75156;SDS011;63736;50.076;8.198;2022-10-24T03:08:57;11.63;;;3.03;;
75156;SDS011;63736;50.076;8.198;2022-10-24T03:11:22;9.60;;;2.50;;
75156;SDS011;63736;50.076;8.198;2022-10-24T03:13:48;7.45;;;2.70;;
75156;SDS011;63736;50.076;8.198;2022-10-24T03:16:13;6.83;;;2.23;;
75156;SDS011;63736;50.076;8.198;2022-10-24T03:18:38;4.20;;;1.23;;
75156;SDS011;63736;50.076;8.198;2022-10-24T03:21:04;7.83;;;1.87;;
75156;SDS011;63736;50.076;8.198;2022-10-24T03:23:29;12.33;;;3.40;;
75156;SDS011;63736;50.076;8.198;2022-10-24T03:25:55;14.67;;;4.70;;
75156;SDS011;63736;50.076;8.198;2022-10-24T03:28:21;9.43;;;3.33;;
75156;SDS011;63736;50.076;8.198;2022-10-24T03:30:47;5.67;;;1.73;;
75156;SDS011;63736;50.076;8.198;2022-10-24T03:33:12;5.80;;;2.53;;
75156;SDS011;63736;50.076;8.198;2022-10-24T03:35:37;6.20;;;2.13;;
75156;SDS011;63736;50.076;8.198;2022-10-24T03:38:03;5.83;;;1.60;;
75156;SDS011;63736;50.076;8.198;2022-10-24T03:40:32;5.03;;;1.98;;
75156;SDS011;63736;50.076;8.198;2022-10-24T03:42:57;10.40;;;2.92;;
75156;SDS011;63736;50.076;8.198;2022-10-24T03:45:23;5.00;;;1.50;;
75156;SDS011;63736;50.076;8.198;2022-10-24T03:47:48;5.00;;;1.47;;
75156;SDS011;63736;50.076;8.198;2022-10-24T03:50:13;7.73;;;2.73;;
75156;SDS011;63736;50.076;8.198;2022-10-24T03:52:38;8.17;;;2.13;;
75156;SDS011;63736;50.076;8.198;2022-10-24T03:55:04;14.83;;;3.03;;
75156;SDS011;63736;50.076;8.198;2022-10-24T03:57:29;5.60;;;1.90;;
75156;SDS011;63736;50.076;8.198;2022-10-24T03:59:55;10.13;;;3.60;;
75156;SDS011;63736;50.076;8.198;2022-10-24T04:02:20;13.07;;;4.43;;
75156;SDS011;63736;50.076;8.198;2022-10-24T04:04:45;11.87;;;4.07;;
75156;SDS011;63736;50.076;8.198;2022-10-24T04:07:10;7.80;;;3.10;;
75156;SDS011;63736;50.076;8.198;2022-10-24T04:09:36;5.23;;;1.60;;
75156;SDS011;63736;50.076;8.198;2022-10-24T04:12:01;6.13;;;2.00;;
75156;SDS011;63736;50.076;8.198;2022-10-24T04:14:26;4.43;;;1.40;;
75156;SDS011;63736;50.076;8.198;2022-10-24T04:16:52;6.30;;;1.40;;
75156;SDS011;63736;50.076;8.198;2022-10-24T04:19:17;7.40;;;2.83;;
75156;SDS011;63736;50.076;8.198;2022-10-24T04:21:43;8.80;;;2.97;;
75156;SDS011;63736;50.076;8.198;2022-10-24T04:24:09;10.20;;;3.28;;
75156;SDS011;63736;50.076;8.198;2022-10-24T04:26:35;16.80;;;5.03;;
75156;SDS011;63736;50.076;8.198;2022-10-24T04:29:00;14.05;;;4.22;;
75156;SDS011;63736;50.076;8.198;2022-10-24T04:31:25;7.50;;;3.10;;
75156;SDS011;63736;50.076;8.198;2022-10-24T04:33:51;15.17;;;3.43;;
75156;SDS011;63736;50.076;8.198;2022-10-24T04:36:16;13.90;;;4.20;;
75156;SDS011;63736;50.076;8.198;2022-10-24T04:38:41;6.40;;;2.00;;
75156;SDS011;63736;50.076;8.198;2022-10-24T04:41:07;6.57;;;2.13;;
75156;SDS011;63736;50.076;8.198;2022-10-24T04:43:32;4.57;;;1.40;;
75156;SDS011;63736;50.076;8.198;2022-10-24T04:45:57;7.67;;;3.10;;
75156;SDS011;63736;50.076;8.198;2022-10-24T04:48:23;11.83;;;3.40;;
75156;SDS011;63736;50.076;8.198;2022-10-24T04:50:48;10.63;;;3.63;;
75156;SDS011;63736;50.076;8.198;2022-10-24T04:53:13;11.50;;;3.10;;
75156;SDS011;63736;50.076;8.198;2022-10-24T04:55:39;10.97;;;2.93;;
75156;SDS011;63736;50.076;8.198;2022-10-24T04:58:04;6.27;;;2.13;;
75156;SDS011;63736;50.076;8.198;2022-10-24T05:00:29;10.10;;;3.00;;
75156;SDS011;63736;50.076;8.198;2022-10-24T05:02:55;7.40;;;3.40;;
75156;SDS011;63736;50.076;8.198;2022-10-24T05:05:20;8.50;;;2.47;;
75156;SDS011;63736;50.076;8.198;2022-10-24T05:07:46;6.57;;;2.37;;
75156;SDS011;63736;50.076;8.198;2022-10-24T05:10:12;9.05;;;2.22;;
75156;SDS011;63736;50.076;8.198;2022-10-24T05:12:38;12.23;;;3.80;;
75156;SDS011;63736;50.076;8.198;2022-10-24T05:15:04;10.35;;;3.97;;
75156;SDS011;63736;50.076;8.198;2022-10-24T05:17:30;13.63;;;3.60;;
75156;SDS011;63736;50.076;8.198;2022-10-24T05:19:56;13.87;;;4.10;;
75156;SDS011;63736;50.076;8.198;2022-10-24T05:22:21;11.53;;;3.73;;
75156;SDS011;63736;50.076;8.198;2022-10-24T05:24:48;13.18;;;4.53;;
75156;SDS011;63736;50.076;8.198;2022-10-24T05:27:13;11.38;;;3.50;;
75156;SDS011;63736;50.076;8.198;2022-10-24T05:29:39;10.23;;;2.17;;
75156;SDS011;63736;50.076;8.198;2022-10-24T05:32:04;5.23;;;1.87;;
75156;SDS011;63736;50.076;8.198;2022-10-24T05:34:30;6.47;;;2.00;;
75156;SDS011;63736;50.076;8.198;2022-10-24T05:36:55;7.07;;;1.87;;
75156;SDS011;63736;50.076;8.198;2022-10-24T05:39:20;8.80;;;1.63;;
75156;SDS011;63736;50.076;8.198;2022-10-24T05:41:46;6.85;;;1.60;;
75156;SDS011;63736;50.076;8.198;2022-10-24T05:44:12;10.40;;;2.40;;
75156;SDS011;63736;50.076;8.198;2022-10-24T05:46:38;9.15;;;2.75;;
75156;SDS011;63736;50.076;8.198;2022-10-24T05:49:03;5.77;;;2.47;;
75156;SDS011;63736;50.076;8.198;2022-10-24T05:51:29;6.72;;;2.10;;
75156;SDS011;63736;50.076;8.198;2022-10-24T05:53:55;5.53;;;2.17;;
75156;SDS011;63736;50.076;8.198;2022-10-24T05:56:20;7.80;;;2.63;;
75156;SDS011;63736;50.076;8.198;2022-10-24T05:58:45;5.00;;;1.50;;
75156;SDS011;63736;50.076;8.198;2022-10-24T06:01:11;4.13;;;1.50;;
75156;SDS011;63736;50.076;8.198;2022-10-24T06:03:37;6.78;;;2.30;;
75156;SDS011;63736;50.076;8.198;2022-10-24T06:06:07;9.13;;;3.35;;
75156;SDS011;63736;50.076;8.198;2022-10-24T06:08:34;15.50;;;4.68;;
75156;SDS011;63736;50.076;8.198;2022-10-24T06:11:00;7.55;;;2.72;;
75156;SDS011;63736;50.076;8.198;2022-10-24T06:13:25;8.13;;;2.80;;
75156;SDS011;63736;50.076;8.198;2022-10-24T06:15:50;10.53;;;2.80;;
75156;SDS011;63736;50.076;8.198;2022-10-24T06:18:16;8.37;;;3.30;;
75156;SDS011;63736;50.076;8.198;2022-10-24T06:20:41;16.00;;;4.13;;
75156;SDS011;63736;50.076;8.198;2022-10-24T06:23:06;8.73;;;2.50;;
75156;SDS011;63736;50.076;8.198;2022-10-24T06:25:32;6.50;;;2.10;;
75156;SDS011;63736;50.076;8.198;2022-10-24T06:27:57;8.20;;;2.80;;
75156;SDS011;63736;50.076;8.198;2022-10-24T06:30:22;6.82;;;2.28;;
75156;SDS011;63736;50.076;8.198;2022-10-24T06:32:47;6.37;;;2.10;;
75156;SDS011;63736;50.076;8.198;2022-10-24T06:35:13;7.00;;;2.10;;
75156;SDS011;63736;50.076;8.198;2022-10-24T06:37:39;6.13;;;2.08;;
75156;SDS011;63736;50.076;8.198;2022-10-24T06:40:05;7.97;;;3.20;;
75156;SDS011;63736;50.076;8.198;2022-10-24T06:42:31;8.33;;;3.07;;
75156;SDS011;63736;50.076;8.198;2022-10-24T06:44:56;10.60;;;3.03;;
75156;SDS011;63736;50.076;8.198;2022-10-24T06:47:21;9.53;;;3.33;;
75156;SDS011;63736;50.076;8.198;2022-10-24T06:49:47;5.90;;;1.97;;
75156;SDS011;63736;50.076;8.198;2022-10-24T06:52:12;4.67;;;1.60;;
75156;SDS011;63736;50.076;8.198;2022-10-24T06:54:37;8.03;;;1.93;;
75156;SDS011;63736;50.076;8.198;2022-10-24T06:57:03;12.17;;;4.83;;
75156;SDS011;63736;50.076;8.198;2022-10-24T06:59:29;15.07;;;5.35;;
75156;SDS011;63736;50.076;8.198;2022-10-24T07:01:54;9.13;;;3.55;;
75156;SDS011;63736;50.076;8.198;2022-10-24T07:04:20;7.50;;;2.70;;
75156;SDS011;63736;50.076;8.198;2022-10-24T07:06:45;5.83;;;1.90;;
75156;SDS011;63736;50.076;8.198;2022-10-24T07:09:11;5.63;;;1.50;;
75156;SDS011;63736;50.076;8.198;2022-10-24T07:11:36;4.60;;;2.13;;
75156;SDS011;63736;50.076;8.198;2022-10-24T07:14:02;5.13;;;1.70;;
75156;SDS011;63736;50.076;8.198;2022-10-24T07:16:28;16.73;;;4.47;;
75156;SDS011;63736;50.076;8.198;2022-10-24T07:18:53;10.05;;;4.10;;
75156;SDS011;63736;50.076;8.198;2022-10-24T07:21:20;10.13;;;3.30;;
75156;SDS011;63736;50.076;8.198;2022-10-24T07:23:48;9.27;;;3.70;;
75156;SDS011;63736;50.076;8.198;2022-10-24T07:26:15;10.65;;;3.53;;
75156;SDS011;63736;50.076;8.198;2022-10-24T07:28:41;9.33;;;3.30;;
75156;SDS011;63736;50.076;8.198;2022-10-24T07:31:10;12.18;;;3.85;;
75156;SDS011;63736;50.076;8.198;2022-10-24T07:33:37;14.98;;;4.00;;
75156;SDS011;63736;50.076;8.198;2022-10-24T07:36:03;9.20;;;3.50;;
75156;SDS011;63736;50.076;8.198;2022-10-24T07:38:29;6.80;;;2.80;;
75156;SDS011;63736;50.076;8.198;2022-10-24T07:40:54;10.53;;;3.33;;
75156;SDS011;63736;50.076;8.198;2022-10-24T07:43:19;10.27;;;3.47;;
75156;SDS011;63736;50.076;8.198;2022-10-24T07:45:44;10.07;;;3.30;;
75156;SDS011;63736;50.076;8.198;2022-10-24T07:48:10;11.73;;;4.80;;
75156;SDS011;63736;50.076;8.198;2022-10-24T07:50:40;7.93;;;2.80;;
75156;SDS011;63736;50.076;8.198;2022-10-24T07:53:08;12.45;;;3.63;;
75156;SDS011;63736;50.076;8.198;2022-10-24T07:55:36;12.07;;;3.70;;
75156;SDS011;63736;50.076;8.198;2022-10-24T07:58:03;14.27;;;4.40;;
75156;SDS011;63736;50.076;8.198;2022-10-24T08:00:28;11.90;;;4.10;;
75156;SDS011;63736;50.076;8.198;2022-10-24T08:02:53;12.47;;;4.03;;
75156;SDS011;63736;50.076;8.198;2022-10-24T08:05:18;10.77;;;3.37;;
75156;SDS011;63736;50.076;8.198;2022-10-24T08:07:44;9.40;;;2.90;;
75156;SDS011;63736;50.076;8.198;2022-10-24T08:10:10;14.53;;;4.33;;
75156;SDS011;63736;50.076;8.198;2022-10-24T08:12:36;13.32;;;3.80;;
75156;SDS011;63736;50.076;8.198;2022-10-24T08:15:02;8.37;;;3.50;;
75156;SDS011;63736;50.076;8.198;2022-10-24T08:17:27;10.63;;;3.23;;
75156;SDS011;63736;50.076;8.198;2022-10-24T08:19:53;9.07;;;2.57;;
75156;SDS011;63736;50.076;8.198;2022-10-24T08:22:18;9.40;;;3.60;;
75156;SDS011;63736;50.076;8.198;2022-10-24T08:24:43;7.43;;;2.10;;
75156;SDS011;63736;50.076;8.198;2022-10-24T08:27:09;11.60;;;3.90;;
75156;SDS011;63736;50.076;8.198;2022-10-24T08:29:34;11.07;;;4.13;;
75156;SDS011;63736;50.076;8.198;2022-10-24T08:32:00;10.20;;;3.80;;
75156;SDS011;63736;50.076;8.198;2022-10-24T08:34:26;12.63;;;4.03;;
75156;SDS011;63736;50.076;8.198;2022-10-24T08:36:51;12.10;;;3.50;;
75156;SDS011;63736;50.076;8.198;2022-10-24T08:39:17;12.27;;;4.20;;
75156;SDS011;63736;50.076;8.198;2022-10-24T08:41:50;10.93;;;4.10;;
75156;SDS011;63736;50.076;8.198;2022-10-24T08:44:30;13.15;;;3.47;;
75156;SDS011;63736;50.076;8.198;2022-10-24T08:52:54;6.65;;;3.22;;
75156;SDS011;63736;50.076;8.198;2022-10-24T08:55:28;11.30;;;3.40;;
75156;SDS011;63736;50.076;8.198;2022-10-24T08:58:03;13.20;;;3.72;;
75156;SDS011;63736;50.076;8.198;2022-10-24T09:00:32;14.40;;;4.00;;
75156;SDS011;63736;50.076;8.198;2022-10-24T09:06:07;9.07;;;3.00;;
75156;SDS011;63736;50.076;8.198;2022-10-24T09:11:23;8.80;;;2.67;;
75156;SDS011;63736;50.076;8.198;2022-10-24T09:13:54;8.50;;;2.50;;
75156;SDS011;63736;50.076;8.198;2022-10-24T09:16:21;10.20;;;2.90;;
75156;SDS011;63736;50.076;8.198;2022-10-24T09:18:50;11.07;;;3.05;;
75156;SDS011;63736;50.076;8.198;2022-10-24T09:21:16;11.30;;;3.75;;
75156;SDS011;63736;50.076;8.198;2022-10-24T09:23:42;13.80;;;3.25;;
75156;SDS011;63736;50.076;8.198;2022-10-24T09:26:15;7.27;;;2.60;;
75156;SDS011;63736;50.076;8.198;2022-10-24T09:28:46;9.57;;;3.28;;
75156;SDS011;63736;50.076;8.198;2022-10-24T09:31:14;12.13;;;2.80;;
75156;SDS011;63736;50.076;8.198;2022-10-24T09:33:43;12.48;;;2.40;;
75156;SDS011;63736;50.076;8.198;2022-10-24T09:36:11;7.30;;;2.53;;
75156;SDS011;63736;50.076;8.198;2022-10-24T09:38:39;9.17;;;2.90;;
75156;SDS011;63736;50.076;8.198;2022-10-24T09:41:16;11.05;;;3.10;;
75156;SDS011;63736;50.076;8.198;2022-10-24T09:43:46;13.18;;;3.10;;
75156;SDS011;63736;50.076;8.198;2022-10-24T09:46:23;13.50;;;3.10;;
75156;SDS011;63736;50.076;8.198;2022-10-24T09:49:02;9.55;;;2.90;;
75156;SDS011;63736;50.076;8.198;2022-10-24T09:52:01;11.40;;;2.50;;
75156;SDS011;63736;50.076;8.198;2022-10-24T09:54:43;10.55;;;2.60;;
75156;SDS011;63736;50.076;8.198;2022-10-24T09:59:47;10.30;;;2.47;;
75156;SDS011;63736;50.076;8.198;2022-10-24T10:02:28;9.00;;;2.53;;
75156;SDS011;63736;50.076;8.198;2022-10-24T10:07:27;10.83;;;3.13;;
75156;SDS011;63736;50.076;8.198;2022-10-24T10:09:55;11.02;;;2.95;;
75156;SDS011;63736;50.076;8.198;2022-10-24T10:15:18;15.60;;;3.00;;
75156;SDS011;63736;50.076;8.198;2022-10-24T10:17:54;8.25;;;2.05;;
75156;SDS011;63736;50.076;8.198;2022-10-24T10:20:22;9.90;;;3.03;;
75156;SDS011;63736;50.076;8.198;2022-10-24T10:22:52;11.27;;;3.50;;
75156;SDS011;63736;50.076;8.198;2022-10-24T10:25:28;9.47;;;2.50;;
75156;SDS011;63736;50.076;8.198;2022-10-24T10:27:55;11.25;;;4.85;;
75156;SDS011;63736;50.076;8.198;2022-10-24T10:30:22;8.40;;;2.30;;
75156;SDS011;63736;50.076;8.198;2022-10-24T10:36:11;10.63;;;3.00;;
75156;SDS011;63736;50.076;8.198;2022-10-24T10:39:01;11.98;;;3.00;;
75156;SDS011;63736;50.076;8.198;2022-10-24T10:50:35;8.57;;;2.20;;
75156;SDS011;63736;50.076;8.198;2022-10-24T11:12:17;9.00;;;2.00;;
75156;SDS011;63736;50.076;8.198;2022-10-24T11:14:48;7.32;;;1.73;;
75156;SDS011;63736;50.076;8.198;2022-10-24T11:17:23;6.33;;;2.10;;
75156;SDS011;63736;50.076;8.198;2022-10-24T11:20:00;7.03;;;1.83;;
75156;SDS011;63736;50.076;8.198;2022-10-24T11:22:49;12.20;;;1.80;;
75156;SDS011;63736;50.076;8.198;2022-10-24T11:28:06;7.93;;;1.70;;
75156;SDS011;63736;50.076;8.198;2022-10-24T11:31:22;11.20;;;2.33;;
75156;SDS011;63736;50.076;8.198;2022-10-24T11:33:33;7.25;;;1.85;;
75156;SDS011;63736;50.076;8.198;2022-10-24T11:36:05;6.72;;;1.90;;
75156;SDS011;63736;50.076;8.198;2022-10-24T11:38:39;6.65;;;1.92;;
75156;SDS011;63736;50.076;8.198;2022-10-24T11:41:22;5.75;;;1.55;;
75156;SDS011;63736;50.076;8.198;2022-10-24T11:43:55;5.83;;;1.40;;
75156;SDS011;63736;50.076;8.198;2022-10-24T11:46:25;8.80;;;1.83;;
75156;SDS011;63736;50.076;8.198;2022-10-24T11:48:59;5.50;;;1.35;;
75156;SDS011;63736;50.076;8.198;2022-10-24T11:51:46;5.55;;;1.23;;
75156;SDS011;63736;50.076;8.198;2022-10-24T11:54:38;4.53;;;1.20;;
75156;SDS011;63736;50.076;8.198;2022-10-24T11:57:10;4.73;;;1.27;;
75156;SDS011;63736;50.076;8.198;2022-10-24T11:59:39;6.80;;;1.50;;
75156;SDS011;63736;50.076;8.198;2022-10-24T12:04:43;5.95;;;1.27;;
75156;SDS011;63736;50.076;8.198;2022-10-24T12:18:29;5.53;;;1.50;;
75156;SDS011;63736;50.076;8.198;2022-10-24T12:21:02;8.50;;;1.10;;
75156;SDS011;63736;50.076;8.198;2022-10-24T12:23:29;4.22;;;1.35;;
75156;SDS011;63736;50.076;8.198;2022-10-24T12:26:17;5.07;;;1.20;;
75156;SDS011;63736;50.076;8.198;2022-10-24T12:28:51;4.03;;;0.90;;
75156;SDS011;63736;50.076;8.198;2022-10-24T12:31:30;5.88;;;1.05;;
75156;SDS011;63736;50.076;8.198;2022-10-24T12:39:36;6.27;;;1.63;;
75156;SDS011;63736;50.076;8.198;2022-10-24T12:42:03;5.95;;;1.13;;
75156;SDS011;63736;50.076;8.198;2022-10-24T12:46:57;5.32;;;1.30;;
75156;SDS011;63736;50.076;8.198;2022-10-24T12:49:27;4.27;;;1.00;;
75156;SDS011;63736;50.076;8.198;2022-10-24T12:51:54;7.35;;;1.50;;
75156;SDS011;63736;50.076;8.198;2022-10-24T12:59:46;6.30;;;1.30;;
75156;SDS011;63736;50.076;8.198;2022-10-24T13:13:13;7.22;;;1.60;;
75156;SDS011;63736;50.076;8.198;2022-10-24T13:21:46;4.40;;;1.40;;
75156;SDS011;63736;50.076;8.198;2022-10-24T13:37:11;9.02;;;2.00;;
75156;SDS011;63736;50.076;8.198;2022-10-24T13:42:34;5.03;;;1.25;;
75156;SDS011;63736;50.076;8.198;2022-10-24T13:45:06;5.53;;;1.30;;
75156;SDS011;63736;50.076;8.198;2022-10-24T13:47:47;5.83;;;1.60;;
75156;SDS011;63736;50.076;8.198;2022-10-24T13:50:17;5.70;;;1.10;;
75156;SDS011;63736;50.076;8.198;2022-10-24T13:52:50;3.97;;;0.98;;
75156;SDS011;63736;50.076;8.198;2022-10-24T14:00:34;5.73;;;1.30;;
75156;SDS011;63736;50.076;8.198;2022-10-24T14:03:02;6.35;;;1.38;;
75156;SDS011;63736;50.076;8.198;2022-10-24T14:05:33;4.97;;;1.42;;
75156;SDS011;63736;50.076;8.198;2022-10-24T14:08:04;4.55;;;1.10;;
75156;SDS011;63736;50.076;8.198;2022-10-24T14:10:32;7.80;;;1.60;;
75156;SDS011;63736;50.076;8.198;2022-10-24T14:12:57;6.10;;;2.13;;
75156;SDS011;63736;50.076;8.198;2022-10-24T14:15:27;5.50;;;1.30;;
75156;SDS011;63736;50.076;8.198;2022-10-24T14:17:59;6.15;;;1.83;;
75156;SDS011;63736;50.076;8.198;2022-10-24T14:20:27;3.80;;;0.97;;
75156;SDS011;63736;50.076;8.198;2022-10-24T14:22:58;6.22;;;1.20;;
75156;SDS011;63736;50.076;8.198;2022-10-24T14:25:28;5.00;;;1.17;;
75156;SDS011;63736;50.076;8.198;2022-10-24T14:28:01;5.15;;;1.17;;
75156;SDS011;63736;50.076;8.198;2022-10-24T14:30:33;5.87;;;1.17;;
75156;SDS011;63736;50.076;8.198;2022-10-24T14:33:42;7.93;;;1.88;;
75156;SDS011;63736;50.076;8.198;2022-10-24T14:36:05;6.53;;;1.30;;
75156;SDS011;63736;50.076;8.198;2022-10-24T14:38:31;5.33;;;1.37;;
75156;SDS011;63736;50.076;8.198;2022-10-24T14:40:58;4.38;;;1.38;;
75156;SDS011;63736;50.076;8.198;2022-10-24T14:43:25;4.07;;;0.93;;
75156;SDS011;63736;50.076;8.198;2022-10-24T14:48:36;3.90;;;1.40;;
75156;SDS011;63736;50.076;8.198;2022-10-24T14:53:58;4.82;;;1.30;;
75156;SDS011;63736;50.076;8.198;2022-10-24T14:58:53;6.00;;;1.55;;
75156;SDS011;63736;50.076;8.198;2022-10-24T15:01:21;6.57;;;1.10;;
75156;SDS011;63736;50.076;8.198;2022-10-24T15:03:51;5.88;;;1.30;;
75156;SDS011;63736;50.076;8.198;2022-10-24T15:06:22;4.72;;;1.25;;
75156;SDS011;63736;50.076;8.198;2022-10-24T15:09:00;4.10;;;1.00;;
75156;SDS011;63736;50.076;8.198;2022-10-24T15:11:33;5.15;;;1.10;;
75156;SDS011;63736;50.076;8.198;2022-10-24T15:14:02;8.45;;;1.50;;
75156;SDS011;63736;50.076;8.198;2022-10-24T15:16:28;5.27;;;1.30;;
75156;SDS011;63736;50.076;8.198;2022-10-24T15:18:59;5.22;;;1.00;;
75156;SDS011;63736;50.076;8.198;2022-10-24T15:21:30;4.82;;;1.08;;
75156;SDS011;63736;50.076;8.198;2022-10-24T15:23:58;5.70;;;1.20;;
75156;SDS011;63736;50.076;8.198;2022-10-24T15:31:40;4.00;;;1.00;;
75156;SDS011;63736;50.076;8.198;2022-10-24T15:34:06;3.70;;;1.00;;
75156;SDS011;63736;50.076;8.198;2022-10-24T15:36:34;4.20;;;0.93;;
75156;SDS011;63736;50.076;8.198;2022-10-24T15:39:04;5.53;;;1.33;;
75156;SDS011;63736;50.076;8.198;2022-10-24T15:41:32;5.90;;;0.90;;
75156;SDS011;63736;50.076;8.198;2022-10-24T15:43:57;9.38;;;1.67;;
75156;SDS011;63736;50.076;8.198;2022-10-24T15:46:23;6.30;;;1.23;;
75156;SDS011;63736;50.076;8.198;2022-10-24T15:48:48;5.35;;;1.38;;
75156;SDS011;63736;50.076;8.198;2022-10-24T15:51:15;4.63;;;0.93;;
75156;SDS011;63736;50.076;8.198;2022-10-24T15:53:44;6.87;;;1.00;;
75156;SDS011;63736;50.076;8.198;2022-10-24T15:56:10;6.20;;;0.75;;
75156;SDS011;63736;50.076;8.198;2022-10-24T15:58:37;5.13;;;0.80;;
75156;SDS011;63736;50.076;8.198;2022-10-24T16:01:03;4.88;;;0.90;;
75156;SDS011;63736;50.076;8.198;2022-10-24T16:03:28;5.67;;;0.80;;
75156;SDS011;63736;50.076;8.198;2022-10-24T16:05:56;8.15;;;0.95;;
75156;SDS011;63736;50.076;8.198;2022-10-24T16:08:22;4.93;;;0.80;;
75156;SDS011;63736;50.076;8.198;2022-10-24T16:10:48;5.83;;;1.10;;
75156;SDS011;63736;50.076;8.198;2022-10-24T16:13:15;4.85;;;0.88;;
75156;SDS011;63736;50.076;8.198;2022-10-24T16:15:42;3.90;;;0.77;;
75156;SDS011;63736;50.076;8.198;2022-10-24T16:18:09;5.55;;;0.90;;
75156;SDS011;63736;50.076;8.198;2022-10-24T16:20:35;5.20;;;0.80;;
75156;SDS011;63736;50.076;8.198;2022-10-24T16:23:03;5.80;;;0.85;;
75156;SDS011;63736;50.076;8.198;2022-10-24T16:25:30;3.58;;;1.00;;
75156;SDS011;63736;50.076;8.198;2022-10-24T16:27:57;3.63;;;1.03;;
75156;SDS011;63736;50.076;8.198;2022-10-24T16:30:26;6.22;;;1.30;;
75156;SDS011;63736;50.076;8.198;2022-10-24T16:32:53;5.80;;;0.80;;
75156;SDS011;63736;50.076;8.198;2022-10-24T16:35:23;7.93;;;0.88;;
75156;SDS011;63736;50.076;8.198;2022-10-24T16:37:51;3.70;;;0.77;;
75156;SDS011;63736;50.076;8.198;2022-10-24T16:40:17;5.82;;;0.90;;
75156;SDS011;63736;50.076;8.198;2022-10-24T16:42:42;5.50;;;1.20;;
75156;SDS011;63736;50.076;8.198;2022-10-24T16:45:08;5.05;;;1.10;;
75156;SDS011;63736;50.076;8.198;2022-10-24T16:47:34;5.63;;;1.00;;
75156;SDS011;63736;50.076;8.198;2022-10-24T16:50:00;6.20;;;0.97;;
75156;SDS011;63736;50.076;8.198;2022-10-24T16:52:25;4.80;;;1.40;;
75156;SDS011;63736;50.076;8.198;2022-10-24T16:54:52;5.05;;;1.02;;
75156;SDS011;63736;50.076;8.198;2022-10-24T16:57:18;3.80;;;0.63;;
75156;SDS011;63736;50.076;8.198;2022-10-24T16:59:44;5.75;;;1.38;;
75156;SDS011;63736;50.076;8.198;2022-10-24T17:02:10;5.63;;;1.40;;
75156;SDS011;63736;50.076;8.198;2022-10-24T17:04:38;6.85;;;1.48;;
75156;SDS011;63736;50.076;8.198;2022-10-24T17:07:03;5.97;;;1.20;;
75156;SDS011;63736;50.076;8.198;2022-10-24T17:09:29;5.30;;;1.30;;
75156;SDS011;63736;50.076;8.198;2022-10-24T17:11:54;6.33;;;1.20;;
75156;SDS011;63736;50.076;8.198;2022-10-24T17:14:23;4.70;;;1.30;;
75156;SDS011;63736;50.076;8.198;2022-10-24T17:16:49;5.30;;;1.13;;
75156;SDS011;63736;50.076;8.198;2022-10-24T17:19:14;3.27;;;0.70;;
75156;SDS011;63736;50.076;8.198;2022-10-24T17:21:40;5.37;;;1.27;;